createdAt,value
2022-09-10T00:02:13.399Z,1.00
2022-09-10T00:04:40.297Z,1.70
2022-09-10T00:07:07.279Z,0.90
2022-09-10T00:09:34.302Z,1.70
2022-09-10T00:12:01.328Z,0.80
2022-09-10T00:14:28.256Z,1.00
2022-09-10T00:16:55.350Z,1.42
2022-09-10T00:19:22.294Z,0.77
2022-09-10T00:21:50.801Z,1.08
2022-09-10T00:24:17.770Z,0.90
2022-09-10T00:26:45.779Z,0.90
2022-09-10T00:29:16.981Z,1.00
2022-09-10T00:31:44.776Z,1.25
2022-09-10T00:34:14.065Z,1.25
2022-09-10T00:36:43.275Z,1.38
2022-09-10T00:39:15.927Z,1.00
2022-09-10T00:41:45.232Z,1.00
2022-09-10T00:44:37.464Z,1.10
2022-09-10T00:47:08.157Z,0.80
2022-09-10T00:49:48.460Z,1.17
2022-09-10T00:54:43.783Z,1.10
2022-09-10T00:57:17.256Z,1.58
2022-09-10T00:59:50.161Z,0.90
2022-09-10T01:02:17.335Z,1.00
2022-09-10T01:04:44.656Z,1.10
2022-09-10T01:07:13.729Z,1.20
2022-09-10T01:09:41.196Z,1.00
2022-09-10T01:12:49.645Z,1.25
2022-09-10T01:15:52.831Z,1.05
2022-09-10T01:18:41.863Z,0.80
2022-09-10T01:21:12.136Z,1.13
2022-09-10T01:23:48.134Z,1.02
2022-09-10T01:26:46.825Z,0.90
2022-09-10T01:29:52.936Z,1.10
2022-09-10T01:32:48.715Z,0.90
2022-09-10T01:35:32.292Z,1.02
2022-09-10T01:38:06.787Z,1.00
2022-09-10T01:40:35.170Z,0.80
2022-09-10T01:43:08.984Z,1.00
2022-09-10T01:46:19.258Z,0.93
2022-09-10T01:49:26.173Z,0.98
2022-09-10T01:52:08.342Z,1.00
2022-09-10T01:57:17.055Z,0.98
2022-09-10T01:59:54.376Z,1.02
2022-09-10T02:02:29.616Z,0.98
2022-09-10T02:04:58.063Z,1.00
2022-09-10T02:07:26.638Z,1.35
2022-09-10T02:09:54.974Z,1.15
2022-09-10T02:12:24.766Z,1.20
2022-09-10T02:15:12.466Z,0.90
2022-09-10T02:20:31.269Z,0.80
2022-09-10T02:22:59.740Z,1.10
2022-09-10T02:25:31.839Z,0.88
2022-09-10T02:30:48.326Z,1.70
2022-09-10T02:33:18.525Z,0.75
2022-09-10T02:35:47.812Z,0.88
2022-09-10T02:38:15.104Z,1.38
2022-09-10T02:40:43.313Z,1.15
2022-09-10T02:43:10.274Z,1.02
2022-09-10T02:48:08.253Z,1.10
2022-09-10T02:50:36.158Z,0.80
2022-09-10T02:53:04.438Z,1.00
2022-09-10T02:55:32.004Z,1.10
2022-09-10T02:57:59.017Z,0.88
2022-09-10T03:00:26.195Z,1.00
2022-09-10T03:03:00.906Z,0.90
2022-09-10T03:05:30.006Z,1.05
2022-09-10T03:07:57.701Z,1.00
2022-09-10T03:10:24.970Z,1.00
2022-09-10T03:12:52.473Z,0.88
2022-09-10T03:15:20.627Z,0.65
2022-09-10T03:17:47.833Z,1.13
2022-09-10T03:20:14.970Z,0.75
2022-09-10T03:22:41.991Z,0.82
2022-09-10T03:25:11.988Z,0.80
2022-09-10T03:27:39.342Z,0.73
2022-09-10T03:30:10.589Z,1.02
2022-09-10T03:32:38.266Z,0.82
2022-09-10T03:35:07.766Z,1.17
2022-09-10T03:37:34.714Z,0.80
2022-09-10T03:40:02.636Z,0.80
2022-09-10T03:42:29.654Z,1.00
2022-09-10T03:44:56.783Z,0.60
2022-09-10T03:47:24.153Z,0.80
2022-09-10T03:49:51.100Z,1.20
2022-09-10T03:52:18.587Z,0.88
2022-09-10T03:54:50.119Z,0.63
2022-09-10T03:57:17.252Z,0.90
2022-09-10T03:59:45.963Z,1.10
2022-09-10T04:02:13.014Z,1.30
2022-09-10T04:04:40.777Z,1.15
2022-09-10T04:07:12.859Z,1.00
2022-09-10T04:09:39.796Z,0.88
2022-09-10T04:12:07.132Z,0.90
2022-09-10T04:14:35.163Z,1.33
2022-09-10T04:17:03.515Z,0.90
2022-09-10T04:19:31.752Z,0.80
2022-09-10T04:21:58.740Z,1.13
2022-09-10T04:24:28.711Z,1.00
2022-09-10T04:26:57.958Z,1.00
2022-09-10T04:29:25.754Z,1.20
2022-09-10T04:31:55.269Z,1.40
2022-09-10T04:34:22.805Z,0.68
2022-09-10T04:36:53.713Z,1.23
2022-09-10T04:39:21.327Z,0.80
2022-09-10T04:41:49.701Z,0.90
2022-09-10T04:44:19.694Z,1.20
2022-09-10T04:46:47.951Z,1.00
2022-09-10T04:49:15.058Z,0.80
2022-09-10T04:51:42.954Z,1.05
2022-09-10T04:54:13.603Z,0.90
2022-09-10T04:56:41.721Z,1.20
2022-09-10T04:59:10.898Z,1.42
2022-09-10T05:01:38.229Z,1.00
2022-09-10T05:04:05.589Z,0.90
2022-09-10T05:06:36.385Z,1.30
2022-09-10T05:09:04.990Z,1.00
2022-09-10T05:11:32.957Z,1.25
2022-09-10T05:13:59.898Z,1.10
2022-09-10T05:16:29.343Z,0.77
2022-09-10T05:18:58.094Z,1.08
2022-09-10T05:21:26.775Z,1.43
2022-09-10T05:23:56.240Z,1.00
2022-09-10T05:26:24.778Z,1.20
2022-09-10T05:28:54.965Z,0.93
2022-09-10T05:31:22.222Z,1.17
2022-09-10T05:33:49.618Z,1.05
2022-09-10T05:36:16.634Z,1.20
2022-09-10T05:38:45.784Z,1.15
2022-09-10T05:41:13.796Z,1.00
2022-09-10T05:43:45.392Z,1.15
2022-09-10T05:46:13.079Z,1.63
2022-09-10T05:48:43.717Z,1.20
2022-09-10T05:51:12.544Z,1.45
2022-09-10T05:53:41.712Z,0.88
2022-09-10T05:56:08.727Z,0.98
2022-09-10T05:58:37.045Z,0.98
2022-09-10T06:01:05.579Z,1.10
2022-09-10T06:03:33.376Z,1.25
2022-09-10T06:06:01.923Z,1.02
2022-09-10T06:08:33.191Z,1.10
2022-09-10T06:11:06.404Z,1.02
2022-09-10T06:13:44.010Z,1.20
2022-09-10T06:16:12.631Z,1.02
2022-09-10T06:18:42.116Z,1.35
2022-09-10T06:23:45.062Z,1.05
2022-09-10T06:28:43.382Z,1.15
2022-09-10T06:31:16.998Z,1.00
2022-09-10T06:33:46.765Z,1.20
2022-09-10T06:36:16.641Z,1.15
2022-09-10T06:38:45.227Z,0.90
2022-09-10T06:41:15.402Z,0.70
2022-09-10T06:43:49.649Z,1.02
2022-09-10T06:49:26.167Z,1.40
2022-09-10T06:51:53.465Z,1.63
2022-09-10T06:54:20.599Z,1.05
2022-09-10T06:56:50.773Z,1.25
2022-09-10T06:59:18.497Z,0.85
2022-09-10T07:01:48.287Z,0.98
2022-09-10T07:04:17.068Z,1.10
2022-09-10T07:06:46.019Z,0.98
2022-09-10T07:09:16.753Z,1.10
2022-09-10T07:11:52.523Z,0.75
2022-09-10T07:14:19.556Z,1.08
2022-09-10T07:16:47.607Z,1.33
2022-09-10T07:19:17.381Z,1.48
2022-09-10T07:21:45.595Z,1.05
2022-09-10T07:24:14.893Z,1.00
2022-09-10T07:26:49.838Z,1.08
2022-09-10T07:29:18.392Z,0.85
2022-09-10T07:31:47.326Z,1.02
2022-09-10T07:34:22.342Z,1.40
2022-09-10T07:36:49.705Z,1.10
2022-09-10T07:39:22.346Z,0.98
2022-09-10T07:41:52.343Z,1.02
2022-09-10T07:44:23.329Z,0.90
2022-09-10T07:46:52.566Z,1.23
2022-09-10T07:49:20.796Z,1.00
2022-09-10T07:51:57.670Z,1.20
2022-09-10T07:54:29.021Z,1.17
2022-09-10T07:56:57.304Z,1.33
2022-09-10T07:59:24.501Z,1.25
2022-09-10T08:01:57.410Z,0.90
2022-09-10T08:04:25.213Z,0.90
2022-09-10T08:06:53.334Z,1.25
2022-09-10T08:09:20.630Z,1.00
2022-09-10T08:11:52.848Z,1.30
2022-09-10T08:14:22.536Z,1.63
2022-09-10T08:16:52.691Z,1.40
2022-09-10T08:19:21.346Z,1.85
2022-09-10T08:21:49.444Z,1.25
2022-09-10T08:24:23.601Z,1.55
2022-09-10T08:26:51.338Z,1.33
2022-09-10T08:29:18.662Z,1.20
2022-09-10T08:31:45.828Z,1.50
2022-09-10T08:34:20.275Z,1.15
2022-09-10T08:36:54.474Z,1.50
2022-09-10T08:39:24.200Z,1.30
2022-09-10T08:41:58.165Z,0.70
2022-09-10T08:44:33.912Z,0.80
2022-09-10T08:47:10.696Z,0.98
2022-09-10T08:49:47.527Z,1.20
2022-09-10T08:52:37.591Z,1.10
2022-09-10T08:55:27.343Z,1.23
2022-09-10T08:58:11.362Z,1.33
2022-09-10T09:00:44.599Z,1.02
2022-09-10T09:03:39.673Z,1.05
2022-09-10T09:06:17.297Z,1.10
2022-09-10T09:08:48.507Z,1.50
2022-09-10T09:12:01.872Z,0.90
2022-09-10T09:15:03.804Z,1.08
2022-09-10T09:17:53.946Z,1.02
2022-09-10T09:20:47.248Z,1.38
2022-09-10T09:24:11.836Z,1.90
2022-09-10T09:26:38.516Z,1.88
2022-09-10T09:29:21.592Z,1.50
2022-09-10T09:31:56.607Z,1.10
2022-09-10T09:34:26.708Z,1.48
2022-09-10T09:36:57.011Z,1.10
2022-09-10T09:39:36.913Z,1.15
2022-09-10T09:42:29.343Z,1.50
2022-09-10T09:45:23.403Z,1.60
2022-09-10T09:47:51.015Z,1.40
2022-09-10T09:50:18.590Z,1.52
2022-09-10T09:52:46.727Z,1.35
2022-09-10T09:55:41.530Z,1.77
2022-09-10T09:58:29.816Z,1.17
2022-09-10T10:01:09.143Z,1.27
2022-09-10T10:03:52.642Z,1.52
2022-09-10T10:06:24.662Z,1.48
2022-09-10T10:09:08.119Z,1.17
2022-09-10T10:11:47.963Z,1.45
2022-09-10T10:14:24.316Z,1.30
2022-09-10T10:16:56.223Z,1.13
2022-09-10T10:19:35.546Z,1.25
2022-09-10T10:22:14.422Z,1.02
2022-09-10T10:24:42.744Z,1.00
2022-09-10T10:27:26.796Z,1.15
2022-09-10T10:30:00.229Z,1.17
2022-09-10T10:32:56.336Z,1.00
2022-09-10T10:35:45.746Z,1.20
2022-09-10T10:38:29.380Z,1.70
2022-09-10T10:41:09.774Z,1.35
2022-09-10T10:43:45.900Z,1.10
2022-09-10T10:46:22.061Z,1.35
2022-09-10T10:48:58.282Z,1.35
2022-09-10T10:51:44.843Z,1.05
2022-09-10T10:54:48.385Z,0.88
2022-09-10T10:57:40.077Z,1.20
2022-09-10T11:00:19.049Z,1.05
2022-09-10T11:03:11.363Z,1.30
2022-09-10T11:05:50.077Z,1.10
2022-09-10T11:08:27.154Z,1.00
2022-09-10T11:11:02.931Z,1.25
2022-09-10T11:13:39.825Z,2.03
2022-09-10T11:16:20.268Z,1.05
2022-09-10T11:18:50.618Z,1.40
2022-09-10T11:21:22.218Z,1.58
2022-09-10T11:24:04.759Z,1.08
2022-09-10T11:26:43.007Z,1.13
2022-09-10T11:29:37.085Z,1.73
2022-09-10T11:32:04.082Z,1.27
2022-09-10T11:34:41.253Z,1.73
2022-09-10T11:37:33.180Z,1.25
2022-09-10T11:40:06.748Z,1.20
2022-09-10T11:42:49.154Z,1.33
2022-09-10T11:45:36.308Z,1.15
2022-09-10T11:48:18.861Z,1.10
2022-09-10T11:51:06.220Z,0.90
2022-09-10T11:53:34.226Z,1.73
2022-09-10T11:56:23.200Z,1.00
2022-09-10T11:59:22.097Z,0.80
2022-09-10T12:02:30.409Z,1.15
2022-09-10T12:05:00.265Z,1.10
2022-09-10T12:07:49.290Z,1.38
2022-09-10T12:10:19.281Z,0.90
2022-09-10T12:12:50.338Z,1.25
2022-09-10T12:15:23.723Z,1.17
2022-09-10T12:18:02.120Z,1.60
2022-09-10T12:20:38.364Z,1.80
2022-09-10T12:23:06.045Z,1.27
2022-09-10T12:25:34.874Z,1.25
2022-09-10T12:28:07.725Z,1.15
2022-09-10T12:30:38.175Z,1.02
2022-09-10T12:33:29.287Z,0.88
2022-09-10T12:35:56.262Z,0.93
2022-09-10T12:39:00.757Z,0.80
2022-09-10T12:41:29.813Z,1.00
2022-09-10T12:43:57.786Z,1.10
2022-09-10T12:46:26.045Z,1.30
2022-09-10T12:48:56.122Z,1.15
2022-09-10T12:51:40.853Z,1.05
2022-09-10T12:54:37.936Z,1.52
2022-09-10T12:57:09.168Z,1.60
2022-09-10T12:59:59.993Z,1.33
2022-09-10T13:02:32.866Z,1.40
2022-09-10T13:05:17.333Z,2.50
2022-09-10T13:07:45.728Z,1.30
2022-09-10T13:10:22.013Z,1.73
2022-09-10T13:12:55.292Z,1.27
2022-09-10T13:15:30.055Z,1.70
2022-09-10T13:17:57.221Z,1.67
2022-09-10T13:20:29.551Z,1.50
2022-09-10T13:23:02.378Z,1.40
2022-09-10T13:25:42.711Z,1.80
2022-09-10T13:28:32.853Z,2.13
2022-09-10T13:31:09.262Z,1.30
2022-09-10T13:33:54.649Z,1.30
2022-09-10T13:36:34.438Z,1.17
2022-09-10T13:39:29.128Z,1.27
2022-09-10T13:42:17.373Z,2.65
2022-09-10T13:45:03.164Z,1.80
2022-09-10T13:48:01.260Z,1.95
2022-09-10T13:50:36.358Z,1.80
2022-09-10T13:53:08.219Z,2.10
2022-09-10T13:55:35.728Z,2.13
2022-09-10T13:58:14.797Z,2.38
2022-09-10T14:01:01.018Z,2.15
2022-09-10T14:03:36.766Z,2.70
2022-09-10T14:06:07.920Z,2.45
2022-09-10T14:08:45.009Z,3.50
2022-09-10T14:11:11.874Z,2.35
2022-09-10T14:14:05.999Z,2.60
2022-09-10T14:16:51.804Z,2.30
2022-09-10T14:19:30.279Z,2.85
2022-09-10T14:21:57.670Z,2.30
2022-09-10T14:24:48.164Z,2.40
2022-09-10T14:27:16.903Z,2.40
2022-09-10T14:29:44.204Z,2.80
2022-09-10T14:32:27.548Z,1.85
2022-09-10T14:34:55.287Z,2.10
2022-09-10T14:37:41.951Z,1.75
2022-09-10T14:40:22.070Z,2.30
2022-09-10T14:42:50.442Z,2.10
2022-09-10T14:45:39.169Z,2.00
2022-09-10T14:48:26.111Z,2.17
2022-09-10T14:51:10.579Z,2.38
2022-09-10T14:53:38.124Z,2.53
2022-09-10T14:56:10.247Z,2.00
2022-09-10T14:58:37.157Z,1.98
2022-09-10T15:01:04.339Z,1.58
2022-09-10T15:03:31.341Z,2.08
2022-09-10T15:05:58.373Z,2.50
2022-09-10T15:08:25.657Z,1.88
2022-09-10T15:10:55.337Z,1.77
2022-09-10T15:13:22.271Z,2.38
2022-09-10T15:15:50.133Z,2.42
2022-09-10T15:18:17.358Z,2.17
2022-09-10T15:20:44.323Z,2.90
2022-09-10T15:23:11.589Z,2.20
2022-09-10T15:25:47.341Z,2.15
2022-09-10T15:28:14.306Z,2.47
2022-09-10T15:30:41.648Z,2.10
2022-09-10T15:33:14.252Z,2.53
2022-09-10T15:35:41.681Z,2.13
2022-09-10T15:38:15.556Z,1.90
2022-09-10T15:40:42.697Z,2.30
2022-09-10T15:43:10.124Z,2.00
2022-09-10T15:45:37.519Z,2.10
2022-09-10T15:48:05.051Z,1.95
2022-09-10T15:50:31.990Z,1.80
2022-09-10T15:52:59.478Z,2.08
2022-09-10T15:55:27.716Z,1.83
2022-09-10T15:57:54.730Z,1.80
2022-09-10T16:00:21.726Z,1.80
2022-09-10T16:02:53.046Z,1.50
2022-09-10T16:05:23.980Z,1.88
2022-09-10T16:07:51.211Z,1.60
2022-09-10T16:10:18.244Z,1.48
2022-09-10T16:12:45.099Z,1.73
2022-09-10T16:15:12.337Z,2.00
2022-09-10T16:17:39.187Z,1.35
2022-09-10T16:20:06.569Z,2.03
2022-09-10T16:22:33.478Z,1.50
2022-09-10T16:25:00.491Z,1.90
2022-09-10T16:27:27.400Z,1.80
2022-09-10T16:29:54.429Z,1.77
2022-09-10T16:32:21.568Z,1.75
2022-09-10T16:34:48.471Z,2.08
2022-09-10T16:37:17.347Z,1.92
2022-09-10T16:39:44.367Z,1.73
2022-09-10T16:42:11.313Z,1.52
2022-09-10T16:44:38.630Z,1.63
2022-09-10T16:47:05.760Z,1.58
2022-09-10T16:49:32.662Z,1.23
2022-09-10T16:51:59.594Z,1.70
2022-09-10T16:54:26.769Z,1.83
2022-09-10T16:56:53.904Z,1.85
2022-09-10T16:59:23.180Z,1.63
2022-09-10T17:01:52.031Z,2.05
2022-09-10T17:04:27.610Z,1.50
2022-09-10T17:06:56.188Z,1.38
2022-09-10T17:09:23.096Z,1.52
2022-09-10T17:11:51.187Z,1.40
2022-09-10T17:14:18.108Z,1.23
2022-09-10T17:16:45.401Z,1.75
2022-09-10T17:19:17.679Z,1.38
2022-09-10T17:21:50.925Z,1.80
2022-09-10T17:24:19.603Z,1.23
2022-09-10T17:26:46.566Z,1.35
2022-09-10T17:29:16.257Z,1.20
2022-09-10T17:31:45.230Z,1.25
2022-09-10T17:34:13.230Z,1.50
2022-09-10T17:36:42.052Z,1.30
2022-09-10T17:39:09.047Z,1.63
2022-09-10T17:41:36.365Z,1.50
2022-09-10T17:44:03.314Z,1.17
2022-09-10T17:46:31.498Z,1.92
2022-09-10T17:49:02.532Z,1.88
2022-09-10T17:51:31.838Z,1.83
2022-09-10T17:53:58.946Z,1.90
2022-09-10T17:56:26.863Z,2.08
2022-09-10T17:59:01.840Z,1.80
2022-09-10T18:01:31.791Z,1.80
2022-09-10T18:03:58.885Z,1.67
2022-09-10T18:06:29.282Z,1.90
2022-09-10T18:09:00.752Z,1.73
2022-09-10T18:11:33.241Z,1.75
2022-09-10T18:14:00.848Z,1.88
2022-09-10T18:16:30.293Z,2.00
2022-09-10T18:19:00.164Z,2.37
2022-09-10T18:21:38.153Z,2.10
2022-09-10T18:24:07.012Z,2.17
2022-09-10T18:26:42.030Z,2.20
2022-09-10T18:29:17.746Z,2.20
2022-09-10T18:31:47.655Z,2.10
2022-09-10T18:34:22.655Z,2.45
2022-09-10T18:36:54.960Z,2.25
2022-09-10T18:39:23.480Z,1.95
2022-09-10T18:41:50.600Z,2.33
2022-09-10T18:44:23.461Z,2.30
2022-09-10T18:46:52.899Z,2.47
2022-09-10T18:49:22.269Z,2.72
2022-09-10T18:51:49.971Z,2.00
2022-09-10T18:54:17.652Z,2.53
2022-09-10T18:56:47.352Z,2.38
2022-09-10T18:59:23.341Z,2.53
2022-09-10T19:01:53.522Z,2.47
2022-09-10T19:06:49.833Z,2.65
2022-09-10T19:09:26.091Z,2.50
2022-09-10T19:11:55.047Z,2.50
2022-09-10T19:14:31.110Z,2.83
2022-09-10T19:17:00.353Z,2.50
2022-09-10T19:19:30.224Z,3.22
2022-09-10T19:22:03.386Z,3.38
2022-09-10T19:24:54.060Z,2.97
2022-09-10T19:27:18.154Z,3.00
2022-09-10T19:29:47.377Z,3.28
2022-09-10T19:32:15.217Z,3.38
2022-09-10T19:34:42.826Z,3.17
2022-09-10T19:37:09.859Z,2.70
2022-09-10T19:39:36.877Z,3.03
2022-09-10T19:42:05.131Z,2.83
2022-09-10T19:44:33.709Z,2.97
2022-09-10T19:47:00.996Z,2.65
2022-09-10T19:49:28.278Z,2.75
2022-09-10T19:51:55.199Z,2.83
2022-09-10T19:54:24.640Z,2.72
2022-09-10T19:56:51.855Z,2.67
2022-09-10T19:59:18.801Z,2.60
2022-09-10T20:01:46.264Z,2.65
2022-09-10T20:04:14.260Z,2.30
2022-09-10T20:06:42.848Z,2.55
2022-09-10T20:09:10.292Z,2.55
2022-09-10T20:11:37.895Z,2.63
2022-09-10T20:14:13.467Z,3.33
2022-09-10T20:16:43.329Z,3.30
2022-09-10T20:19:18.264Z,4.13
2022-09-10T20:21:47.575Z,2.65
2022-09-10T20:24:16.394Z,3.13
2022-09-10T20:26:46.713Z,2.85
2022-09-10T20:29:17.906Z,2.63
2022-09-10T20:31:46.497Z,2.38
2022-09-10T20:34:16.694Z,2.63
2022-09-10T20:39:13.750Z,2.85
2022-09-10T20:41:41.309Z,3.53
2022-09-10T20:44:11.161Z,2.88
2022-09-10T20:46:38.343Z,3.05
2022-09-10T20:49:05.714Z,2.90
2022-09-10T20:51:35.716Z,3.13
2022-09-10T20:54:04.712Z,3.33
2022-09-10T20:56:32.360Z,2.53
2022-09-10T20:59:01.717Z,2.60
2022-09-10T21:01:33.284Z,3.00
2022-09-10T21:04:01.589Z,3.08
2022-09-10T21:06:31.419Z,2.88
2022-09-10T21:09:00.340Z,3.50
2022-09-10T21:11:29.763Z,3.75
2022-09-10T21:13:59.614Z,3.37
2022-09-10T21:16:28.520Z,3.35
2022-09-10T21:19:07.967Z,3.30
2022-09-10T21:21:36.689Z,2.83
2022-09-10T21:24:10.838Z,3.65
2022-09-10T21:26:39.953Z,3.60
2022-09-10T21:29:12.763Z,3.85
2022-09-10T21:31:40.090Z,3.42
2022-09-10T21:34:07.639Z,3.10
2022-09-10T21:36:36.697Z,3.95
2022-09-10T21:39:07.624Z,3.72
2022-09-10T21:41:36.762Z,3.33
2022-09-10T21:44:15.559Z,3.25
2022-09-10T21:46:43.820Z,4.07
2022-09-10T21:49:11.859Z,3.42
2022-09-10T21:51:39.473Z,2.92
2022-09-10T21:54:06.620Z,3.03
2022-09-10T21:56:33.786Z,2.90
2022-09-10T21:59:01.115Z,2.85
2022-09-10T22:01:31.336Z,2.60
2022-09-10T22:04:00.593Z,3.22
2022-09-10T22:06:30.366Z,3.00
2022-09-10T22:09:03.063Z,3.08
2022-09-10T22:11:35.962Z,2.65
2022-09-10T22:14:14.400Z,2.95
2022-09-10T22:16:41.323Z,3.33
2022-09-10T22:19:20.622Z,3.70
2022-09-10T22:21:47.693Z,3.45
2022-09-10T22:24:15.199Z,3.30
2022-09-10T22:26:43.992Z,3.40
2022-09-10T22:29:12.587Z,3.78
2022-09-10T22:31:39.572Z,4.15
2022-09-10T22:34:10.107Z,3.75
2022-09-10T22:36:39.423Z,4.22
2022-09-10T22:39:17.938Z,3.88
2022-09-10T22:41:46.122Z,3.67
2022-09-10T22:44:13.712Z,3.22
2022-09-10T22:46:41.519Z,2.92
2022-09-10T22:49:08.791Z,3.50
2022-09-10T22:51:39.918Z,3.40
2022-09-10T22:54:08.111Z,2.72
2022-09-10T22:56:38.208Z,2.67
2022-09-10T22:59:06.444Z,2.50
2022-09-10T23:01:37.986Z,2.28
2022-09-10T23:04:06.540Z,3.25
2022-09-10T23:06:36.283Z,2.75
2022-09-10T23:09:17.840Z,2.42
2022-09-10T23:11:45.601Z,2.53
2022-09-10T23:14:15.863Z,2.88
2022-09-10T23:19:16.870Z,2.58
2022-09-10T23:21:46.586Z,2.30
2022-09-10T23:24:16.331Z,2.70
2022-09-10T23:26:44.165Z,2.15
2022-09-10T23:29:12.466Z,2.58
2022-09-10T23:31:41.008Z,2.25
2022-09-10T23:34:11.454Z,2.20
2022-09-10T23:36:41.139Z,2.85
2022-09-10T23:39:13.446Z,2.67
2022-09-10T23:41:41.804Z,2.90
2022-09-10T23:44:10.019Z,2.85
2022-09-10T23:46:37.317Z,2.80
2022-09-10T23:49:04.924Z,2.80
2022-09-10T23:51:32.034Z,2.25
2022-09-10T23:53:59.459Z,2.75
2022-09-10T23:56:28.465Z,1.92
2022-09-10T23:58:56.596Z,2.78
